Time;durP1;ratioP1;P1;durP2;ratioP2;P2;SDS_P1;SDS_P2;PMS_P1;PMS_P2;Temp;Humidity;BMP_temperature;BMP_pressure;BME280_temperature;BME280_humidity;BME280_pressure;Samples;Min_cycle;Max_cycle;Signal;HPM_P1;HPM_P2
2021/12/05 00:23:45;;;;;;;28.57;13.27;;;1.70;99.90;0.60;99018;;;;588402;244;24093;-81
2021/12/05 00:26:11;;;;;;;27.63;13.43;;;1.70;99.90;0.60;99017;;;;581414;244;24097;-78
2021/12/05 00:29:07;;;;;;;31.73;15.00;;;1.70;99.90;0.60;99018;;;;578882;244;24062;-76
2021/12/05 00:31:45;;;;;;;27.40;13.53;;;1.70;99.90;0.60;99024;;;;581964;244;24106;-76
2021/12/05 00:34:42;;;;;;;31.83;13.23;;;1.70;99.90;0.60;99025;;;;579773;243;24092;-76
2021/12/05 00:42:02;;;;;;;26.43;12.67;;;1.70;99.90;0.60;99028;;;;589053;244;24073;-80
2021/12/05 00:46:58;;;;;;;29.70;14.03;;;1.70;99.90;0.60;99028;;;;588858;244;24052;-79
2021/12/05 00:55:00;;;;;;;28.93;14.93;;;1.70;99.90;0.60;99037;;;;577799;244;24100;-82
2021/12/05 01:02:30;;;;;;;34.27;19.50;;;1.70;99.90;0.60;99040;;;;580003;244;24075;-82
2021/12/05 01:10:05;;;;;;;40.00;23.70;;;1.60;99.90;0.50;99040;;;;575417;244;24055;-82
2021/12/05 01:15:05;;;;;;;47.43;25.63;;;1.50;99.90;0.50;99047;;;;577537;244;24051;-79
2021/12/05 01:17:42;;;;;;;49.97;27.37;;;1.50;99.90;0.50;99049;;;;579746;244;24101;-81
2021/12/05 01:19:59;;;;;;;49.43;26.00;;;1.50;99.90;0.50;99052;;;;588690;244;24107;-80
2021/12/05 01:22:29;;;;;;;45.90;25.77;;;1.50;99.90;0.50;99054;;;;588688;244;24098;-79
2021/12/05 01:25:15;;;;;;;47.57;26.67;;;1.50;99.90;0.40;99065;;;;579579;244;24059;-78
2021/12/05 01:27:39;;;;;;;50.27;28.03;;;1.50;99.90;0.40;99059;;;;587683;244;24145;-80
2021/12/05 01:30:15;;;;;;;51.13;29.07;;;1.50;99.90;0.40;99071;;;;577492;244;24063;-80
2021/12/05 01:32:46;;;;;;;49.87;28.90;;;1.40;99.90;0.40;99073;;;;576440;244;24050;-81
2021/12/05 01:40:28;;;;;;;52.67;29.37;;;1.40;99.90;0.30;99067;;;;585839;244;24036;-75
2021/12/05 01:46:10;;;;;;;48.40;29.40;;;1.40;99.90;0.30;99074;;;;590090;242;24081;-75
2021/12/05 01:59:01;;;;;;;51.43;30.70;;;1.40;99.90;0.40;99079;;;;577192;245;24169;-75
2021/12/05 02:01:44;;;;;;;54.00;29.10;;;1.40;99.90;0.40;99072;;;;569817;245;35074;-77
2021/12/05 02:09:48;;;;;;;48.87;22.37;;;1.40;99.90;0.30;99078;;;;572786;247;24076;-75
2021/12/05 02:12:31;;;;;;;45.87;26.83;;;1.40;99.90;0.30;99080;;;;583146;242;24057;-77
2021/12/05 02:39:12;;;;;;;62.00;36.33;;;1.50;99.90;0.40;99077;;;;569698;246;24074;-78
2021/12/05 02:41:34;;;;;;;58.80;35.70;;;1.50;99.90;0.40;99083;;;;570179;246;24099;-74
2021/12/05 02:44:02;;;;;;;63.23;34.47;;;1.50;99.90;0.40;99079;;;;575870;246;24052;-78
2021/12/05 02:46:26;;;;;;;65.90;35.37;;;1.40;99.90;0.40;99073;;;;575570;246;24060;-76
2021/12/05 02:48:56;;;;;;;64.00;35.70;;;1.40;99.90;0.30;99085;;;;570838;246;24054;-78
2021/12/05 02:51:23;;;;;;;63.63;36.50;;;1.40;99.90;0.30;99083;;;;575946;246;24062;-78
2021/12/05 02:54:16;;;;;;;68.00;38.77;;;1.30;99.90;0.30;99086;;;;571093;246;24060;-81
2021/12/05 02:56:19;;;;;;;64.43;37.50;;;1.30;99.90;0.30;99095;;;;576198;245;24139;-81
2021/12/05 02:58:56;;;;;;;62.10;36.17;;;1.30;99.90;0.30;99093;;;;572181;245;25089;-84
2021/12/05 03:01:24;;;;;;;64.20;36.40;;;1.30;99.90;0.30;99089;;;;575826;244;24068;-75
2021/12/05 03:03:51;;;;;;;59.90;35.87;;;1.30;99.90;0.30;99098;;;;564234;248;24089;-79
2021/12/05 03:06:19;;;;;;;61.37;36.17;;;1.40;99.90;0.30;99098;;;;561975;251;24116;-78
2021/12/05 03:08:44;;;;;;;59.60;35.83;;;1.30;99.90;0.20;99099;;;;571890;247;24152;-74
2021/12/05 03:11:16;;;;;;;66.70;36.57;;;1.30;99.90;0.20;99094;;;;569912;247;24095;-75
2021/12/05 03:13:40;;;;;;;62.20;36.33;;;1.30;99.90;0.20;99092;;;;571375;247;24166;-74
2021/12/05 03:16:12;;;;;;;61.53;35.23;;;1.30;99.90;0.20;99093;;;;577772;247;24114;-77
2021/12/05 03:18:40;;;;;;;64.57;36.40;;;1.30;99.90;0.20;99092;;;;577732;247;24181;-77
2021/12/05 03:21:08;;;;;;;57.87;35.73;;;1.30;99.90;0.20;99090;;;;577769;247;24136;-79
2021/12/05 03:23:38;;;;;;;64.43;38.57;;;1.30;99.90;0.10;99094;;;;577780;247;24095;-76
2021/12/05 03:26:06;;;;;;;65.60;37.87;;;1.20;99.90;0.10;99097;;;;577730;247;25200;-76
2021/12/05 03:28:38;;;;;;;63.17;38.90;;;1.10;99.90;0.10;99101;;;;577755;247;24138;-77
2021/12/05 03:31:03;;;;;;;64.63;37.83;;;1.10;99.90;0.00;99092;;;;576603;247;24105;-75
2021/12/05 03:33:31;;;;;;;52.27;34.47;;;1.10;99.90;-0.10;99088;;;;571394;247;24078;-74
2021/12/05 03:35:59;;;;;;;54.80;35.80;;;0.80;99.90;-0.30;99087;;;;575630;247;24089;-76
2021/12/05 03:38:30;;;;;;;60.70;37.10;;;0.80;99.90;-0.40;99096;;;;571464;247;24063;-75
2021/12/05 03:40:55;;;;;;;64.17;38.97;;;0.70;99.90;-0.40;99100;;;;580029;247;24130;-73
2021/12/05 03:43:28;;;;;;;66.43;40.10;;;0.70;99.90;-0.30;99094;;;;575622;247;24092;-74
2021/12/05 03:45:52;;;;;;;66.67;39.53;;;0.70;99.90;-0.30;99098;;;;576890;247;24081;-75
2021/12/05 03:48:20;;;;;;;64.03;40.03;;;0.70;99.90;-0.20;99110;;;;569176;252;24113;-75
2021/12/05 03:50:51;;;;;;;65.37;39.20;;;0.80;99.90;-0.20;99105;;;;567434;253;24157;-77
2021/12/05 03:53:18;;;;;;;66.37;39.10;;;0.80;99.90;-0.20;99098;;;;571451;247;24190;-74
2021/12/05 03:55:44;;;;;;;63.67;38.53;;;0.90;99.90;-0.20;99104;;;;571375;247;24141;-77
2021/12/05 03:58:12;;;;;;;70.80;40.17;;;0.90;99.90;-0.20;99113;;;;571447;247;24103;-75
2021/12/05 04:00:41;;;;;;;60.97;39.00;;;0.90;99.90;-0.20;99107;;;;577840;244;24103;-78
2021/12/05 04:03:09;;;;;;;64.17;39.50;;;0.90;99.90;-0.20;99114;;;;575251;249;24075;-80
2021/12/05 04:05:37;;;;;;;70.37;41.43;;;0.90;99.90;-0.20;99112;;;;566496;249;24082;-75
2021/12/05 04:08:08;;;;;;;64.17;40.77;;;0.90;99.90;-0.20;99115;;;;568680;249;24079;-80
2021/12/05 04:10:39;;;;;;;65.17;41.13;;;0.90;99.90;-0.20;99114;;;;567465;249;24099;-74
2021/12/05 04:13:04;;;;;;;72.37;42.30;;;0.90;99.90;-0.20;99118;;;;575523;249;24106;-81
2021/12/05 04:15:32;;;;;;;69.13;41.93;;;0.90;99.90;-0.20;99114;;;;564485;249;24131;-77
2021/12/05 04:18:00;;;;;;;67.60;40.73;;;0.90;99.90;-0.20;99125;;;;564110;249;24098;-77
2021/12/05 04:20:27;;;;;;;62.57;42.40;;;0.90;99.90;-0.10;99113;;;;567019;249;24131;-81
2021/12/05 04:22:57;;;;;;;72.23;42.43;;;0.90;99.90;-0.20;99112;;;;566970;249;24087;-79
2021/12/05 04:25:24;;;;;;;68.90;42.13;;;0.90;99.90;-0.20;99110;;;;564472;249;24080;-76
2021/12/05 04:27:53;;;;;;;68.40;40.57;;;0.90;99.90;-0.10;99110;;;;563885;249;24111;-80
2021/12/05 04:30:20;;;;;;;60.10;37.30;;;0.90;99.90;-0.20;99112;;;;566583;249;24081;-80
2021/12/05 04:32:48;;;;;;;60.67;37.87;;;0.90;99.90;-0.20;99115;;;;566791;249;24085;-79
2021/12/05 04:35:16;;;;;;;57.37;36.67;;;0.90;99.90;-0.20;99119;;;;566699;249;24096;-82
2021/12/05 04:37:46;;;;;;;59.40;36.77;;;0.90;99.90;-0.30;99113;;;;566833;249;24157;-80
2021/12/05 04:40:11;;;;;;;66.53;39.77;;;0.80;99.90;-0.40;99124;;;;575044;249;24129;-82
2021/12/05 04:42:40;;;;;;;68.77;40.17;;;0.60;99.90;-0.50;99123;;;;563785;249;24112;-79
2021/12/05 04:45:08;;;;;;;66.70;39.27;;;0.60;99.90;-0.60;99133;;;;563624;249;24091;-78
2021/12/05 04:47:36;;;;;;;66.17;39.73;;;0.50;99.90;-0.80;99123;;;;565750;249;24197;-80
2021/12/05 04:50:04;;;;;;;65.60;41.40;;;0.30;99.90;-0.90;99136;;;;563680;249;24235;-80
2021/12/05 04:52:32;;;;;;;73.10;42.37;;;0.20;99.90;-1.00;99140;;;;566391;249;24117;-81
2021/12/05 04:55:02;;;;;;;65.07;40.70;;;0.10;99.90;-1.00;99151;;;;567226;246;24088;-79
2021/12/05 04:57:28;;;;;;;71.17;44.10;;;0.10;99.90;-1.00;99157;;;;584471;245;24070;-81
2021/12/05 04:59:56;;;;;;;71.07;42.23;;;0.10;99.90;-0.90;99155;;;;579850;245;24059;-78
2021/12/05 05:02:27;;;;;;;68.87;41.90;;;0.10;99.90;-0.90;99161;;;;575098;245;24100;-82
2021/12/05 05:04:52;;;;;;;68.97;43.23;;;0.10;99.90;-0.90;99160;;;;577773;245;24084;-82
2021/12/05 05:07:25;;;;;;;68.57;42.50;;;0.10;99.90;-0.90;99161;;;;575652;245;24085;-82
2021/12/05 05:09:53;;;;;;;68.33;41.97;;;0.20;99.90;-0.90;99162;;;;577418;245;24065;-81
2021/12/05 05:12:21;;;;;;;65.30;39.60;;;0.20;99.90;-0.90;99165;;;;586663;241;24080;-78
2021/12/05 05:14:51;;;;;;;65.60;40.30;;;0.20;99.90;-0.90;99158;;;;574728;245;24049;-78
2021/12/05 05:17:18;;;;;;;59.83;40.53;;;0.20;99.90;-0.90;99164;;;;574607;245;24125;-78
2021/12/05 05:19:51;;;;;;;61.23;39.70;;;0.20;99.90;-1.00;99152;;;;575843;244;24131;-74
2021/12/05 05:25:20;;;;;;;60.53;39.73;;;0.00;99.90;-1.10;99157;;;;578501;244;24087;-75
2021/12/05 05:27:58;;;;;;;62.33;40.60;;;0.00;99.90;-1.20;99164;;;;575303;244;24077;-80
2021/12/05 05:30:23;;;;;;;56.13;37.43;;;-0.10;99.90;-1.30;99169;;;;575226;244;24094;-78
2021/12/05 05:43:38;;;;;;;65.70;40.60;;;-0.50;99.90;-1.60;99191;;;;586783;245;24046;-74
2021/12/05 05:50:54;;;;;;;64.00;38.40;;;-0.60;99.90;-1.70;99202;;;;586696;245;24079;-74
2021/12/05 05:53:22;;;;;;;66.33;39.10;;;-0.60;99.90;-1.70;99194;;;;574897;245;24099;-74
2021/12/05 05:55:51;;;;;;;74.90;45.57;;;-0.70;99.90;-1.80;99196;;;;574669;245;24056;-74
2021/12/05 05:58:21;;;;;;;71.30;39.90;;;-0.60;99.90;-1.80;99210;;;;578208;244;24093;-74
2021/12/05 06:01:01;;;;;;;72.57;42.57;;;-0.70;99.90;-1.80;99213;;;;579381;244;24089;-73
2021/12/05 06:03:23;;;;;;;63.90;41.27;;;-0.70;99.90;-1.90;99216;;;;587622;244;24101;-74
2021/12/05 06:06:00;;;;;;;64.80;39.53;;;-0.80;99.90;-1.80;99211;;;;579566;244;24052;-73
2021/12/05 06:08:28;;;;;;;73.73;44.20;;;-0.80;99.90;-1.90;99200;;;;575363;244;24053;-73
2021/12/05 06:10:57;;;;;;;67.83;43.30;;;-0.80;99.90;-1.90;99193;;;;581099;244;24064;-74
2021/12/05 06:13:24;;;;;;;70.97;41.07;;;-0.80;99.90;-1.90;99202;;;;588057;244;24098;-75
2021/12/05 06:15:52;;;;;;;70.03;41.93;;;-0.80;99.90;-1.90;99202;;;;579312;244;24076;-74
2021/12/05 06:18:23;;;;;;;71.57;43.27;;;-0.80;99.90;-1.90;99206;;;;579178;244;24125;-75
2021/12/05 06:20:51;;;;;;;70.33;43.73;;;-0.80;99.90;-1.90;99206;;;;580787;244;24068;-74
2021/12/05 06:23:15;;;;;;;68.70;42.03;;;-0.80;99.90;-1.90;99207;;;;584915;244;24050;-73
2021/12/05 06:25:47;;;;;;;69.27;42.33;;;-0.80;99.90;-2.00;99213;;;;575133;244;24155;-76
2021/12/05 06:28:15;;;;;;;67.73;41.83;;;-0.80;99.90;-2.00;99219;;;;576846;244;25100;-76
2021/12/05 06:31:01;;;;;;;62.80;41.17;;;-0.80;99.90;-2.00;99236;;;;579392;243;24121;-78
2021/12/05 06:39:21;;;;;;;64.13;40.63;;;-0.90;99.90;-2.10;99236;;;;567483;249;24110;-82
2021/12/05 06:42:33;;;;;;;64.43;40.50;;;-1.00;99.90;-2.10;99235;;;;563583;250;25177;-82
2021/12/05 06:46:48;;;;;;;65.13;38.97;;;-1.00;99.90;-2.10;99244;;;;575973;249;24088;-78
2021/12/05 06:49:16;;;;;;;63.27;42.40;;;-1.00;99.90;-2.10;99255;;;;566958;245;24082;-80
2021/12/05 06:51:44;;;;;;;67.07;40.40;;;-1.00;99.90;-2.10;99248;;;;575969;245;24300;-77
2021/12/05 06:54:12;;;;;;;69.93;41.30;;;-1.00;99.90;-2.10;99247;;;;575896;244;24042;-81
2021/12/05 06:56:40;;;;;;;68.50;41.27;;;-1.00;99.90;-2.10;99252;;;;576031;245;24056;-79
2021/12/05 06:59:12;;;;;;;75.73;44.73;;;-1.00;99.90;-2.10;99256;;;;563343;251;24080;-79
2021/12/05 07:01:40;;;;;;;71.03;45.50;;;-1.00;99.90;-2.10;99258;;;;576383;245;24052;-77
2021/12/05 07:06:54;;;;;;;68.23;44.83;;;-1.00;99.90;-2.00;99277;;;;576177;245;24067;-82
2021/12/05 07:09:23;;;;;;;66.93;41.47;;;-0.90;99.90;-2.00;99287;;;;563181;251;24099;-81
2021/12/05 07:17:07;;;;;;;64.20;41.10;;;-0.90;99.90;-2.00;99294;;;;561634;253;24133;-74
2021/12/05 07:19:41;;;;;;;58.23;37.50;;;-0.90;99.90;-2.00;99289;;;;584227;245;24066;-76
2021/12/05 07:22:00;;;;;;;60.27;37.87;;;-0.90;99.90;-2.00;99297;;;;575975;245;24055;-74
2021/12/05 07:42:51;;;;;;;36.27;20.27;;;-0.30;99.90;-1.40;99328;;;;577229;245;24044;-75
2021/12/05 07:45:25;;;;;;;39.77;19.80;;;-0.20;99.90;-1.30;99327;;;;577113;245;24036;-73
2021/12/05 07:47:51;;;;;;;46.60;31.13;;;-0.20;99.90;-1.30;99332;;;;585425;245;24051;-74
2021/12/05 07:50:16;;;;;;;45.37;33.13;;;-0.10;99.90;-1.20;99330;;;;572612;245;24080;-74
2021/12/05 07:52:50;;;;;;;49.43;33.63;;;-0.10;99.90;-1.10;99333;;;;576538;245;24058;-74
2021/12/05 07:55:20;;;;;;;51.47;34.33;;;0.00;99.90;-1.10;99337;;;;575010;245;24060;-75
2021/12/05 07:58:03;;;;;;;51.27;33.00;;;0.10;99.90;-1.00;99325;;;;562279;250;24102;-81
2021/12/05 08:00:27;;;;;;;45.40;32.00;;;0.20;99.90;-0.90;99334;;;;576458;245;24055;-77
2021/12/05 08:16:35;;;;;;;35.70;26.97;;;0.60;99.90;-0.50;99353;;;;584924;245;24052;-76
2021/12/05 08:19:02;;;;;;;42.23;28.80;;;0.60;99.90;-0.50;99354;;;;584506;245;24041;-75
2021/12/05 08:21:32;;;;;;;41.13;29.37;;;0.70;99.90;-0.50;99363;;;;571589;250;24100;-75
2021/12/05 08:24:02;;;;;;;42.50;29.70;;;0.60;99.90;-0.50;99363;;;;575592;245;24036;-76
2021/12/05 08:26:32;;;;;;;41.60;29.93;;;0.70;99.90;-0.50;99370;;;;574341;245;24059;-75
2021/12/05 08:31:36;;;;;;;49.03;35.73;;;0.70;99.90;-0.50;99372;;;;576030;245;24063;-75
2021/12/05 08:34:06;;;;;;;41.90;30.87;;;0.70;99.90;-0.50;99373;;;;574876;245;24065;-76
2021/12/05 08:39:55;;;;;;;36.20;27.90;;;0.70;99.90;-0.50;99370;;;;571574;250;24152;-74
2021/12/05 09:21:02;;;;;;;36.63;26.27;;;1.20;99.90;0.20;99387;;;;582158;247;24098;-82
2021/12/05 09:23:22;;;;;;;30.90;22.83;;;1.50;99.90;0.30;99390;;;;581020;242;25120;-78
2021/12/05 09:28:39;;;;;;;35.07;22.47;;;1.60;99.90;0.60;99402;;;;553844;250;24114;-82
2021/12/05 09:39:39;;;;;;;35.10;21.03;;;2.00;99.90;0.90;99411;;;;577644;244;24066;-82
2021/12/05 10:06:50;;;;;;;24.70;15.43;;;2.30;99.90;1.20;99403;;;;567014;251;24096;-80
2021/12/05 10:10:25;;;;;;;26.53;16.13;;;2.30;99.90;1.30;99406;;;;581412;246;24140;-83
2021/12/05 10:12:14;;;;;;;24.80;14.27;;;2.40;99.90;1.30;99405;;;;575843;248;24268;-80
2021/12/05 10:38:45;;;;;;;23.40;12.23;;;2.70;99.90;1.70;99418;;;;573903;250;24088;-79
2021/12/05 10:43:42;;;;;;;23.73;13.63;;;2.70;99.90;1.60;99412;;;;565090;250;24095;-73
2021/12/05 10:46:13;;;;;;;29.20;14.97;;;2.70;99.90;1.60;99413;;;;562330;250;24093;-76
2021/12/05 10:48:37;;;;;;;24.60;13.97;;;2.60;99.90;1.60;99414;;;;565057;250;24135;-75
2021/12/05 10:51:12;;;;;;;25.67;14.83;;;2.60;99.90;1.60;99408;;;;564823;250;24171;-75
2021/12/05 10:53:54;;;;;;;27.40;16.20;;;2.60;99.90;1.60;99407;;;;561345;250;24131;-74
2021/12/05 10:56:29;;;;;;;22.57;13.73;;;2.70;99.90;1.70;99405;;;;581413;246;24071;-76
2021/12/05 10:59:16;;;;;;;26.87;14.07;;;2.70;99.90;1.70;99402;;;;574946;246;24161;-78
2021/12/05 11:01:51;;;;;;;26.50;13.43;;;2.70;99.90;1.60;99402;;;;580626;242;24105;-75
2021/12/05 11:04:28;;;;;;;25.60;14.60;;;2.70;99.90;1.60;99406;;;;582670;242;24070;-77
2021/12/05 11:07:01;;;;;;;27.27;14.60;;;2.70;99.90;1.70;99405;;;;591524;242;24157;-76
2021/12/05 11:09:33;;;;;;;22.80;13.43;;;2.70;99.90;1.70;99395;;;;586654;242;24105;-73
2021/12/05 11:12:09;;;;;;;27.30;15.43;;;2.70;99.90;1.70;99399;;;;586734;242;24169;-75
2021/12/05 11:14:37;;;;;;;30.80;14.50;;;2.80;99.90;1.80;99413;;;;580224;242;24063;-75
2021/12/05 11:17:17;;;;;;;28.00;14.83;;;2.80;99.90;1.70;99404;;;;581373;242;24108;-77
2021/12/05 11:19:47;;;;;;;29.20;14.57;;;2.80;99.90;1.80;99393;;;;581688;242;24085;-74
2021/12/05 11:22:21;;;;;;;25.70;13.90;;;2.80;99.90;1.80;99393;;;;583024;242;24057;-74
2021/12/05 11:24:58;;;;;;;28.00;14.33;;;2.80;99.90;1.80;99400;;;;583005;242;24132;-74
2021/12/05 11:27:37;;;;;;;28.87;15.03;;;2.80;99.90;1.70;99410;;;;581137;242;24082;-74
2021/12/05 11:30:13;;;;;;;24.07;14.10;;;2.70;99.90;1.70;99414;;;;588632;242;24091;-74
2021/12/05 11:32:49;;;;;;;23.93;13.60;;;2.70;99.90;1.60;99416;;;;583376;242;24061;-74
2021/12/05 11:35:37;;;;;;;26.67;16.40;;;2.60;99.90;1.50;99425;;;;583154;242;24133;-75
2021/12/05 11:38:17;;;;;;;28.00;15.67;;;2.60;99.90;1.50;99432;;;;583104;242;24225;-76
2021/12/05 11:41:07;;;;;;;34.47;22.37;;;2.50;99.90;1.50;99430;;;;577972;242;35193;-78
2021/12/05 11:43:44;;;;;;;32.27;17.87;;;2.50;99.90;1.40;99433;;;;582977;242;24120;-78
2021/12/05 11:46:25;;;;;;;30.13;15.90;;;2.50;99.90;1.40;99436;;;;582956;242;24080;-76
2021/12/05 11:48:55;;;;;;;46.27;22.93;;;2.50;99.90;1.40;99437;;;;580750;242;25272;-77
2021/12/05 11:51:47;;;;;;;30.70;15.43;;;2.50;99.90;1.40;99432;;;;583027;242;24089;-74
2021/12/05 11:54:22;;;;;;;29.60;14.90;;;2.40;99.90;1.30;99444;;;;582731;242;24103;-75
2021/12/05 11:56:52;;;;;;;31.77;16.10;;;2.40;99.90;1.30;99448;;;;582828;242;24053;-74
2021/12/05 11:59:26;;;;;;;33.67;15.97;;;2.30;99.90;1.20;99450;;;;580372;246;24099;-82
2021/12/05 12:02:12;;;;;;;26.93;15.20;;;2.30;99.90;1.20;99446;;;;568077;249;24099;-83
2021/12/05 12:05:06;;;;;;;24.50;12.63;;;2.20;99.90;1.20;99442;;;;564549;249;24121;-84
2021/12/05 12:07:34;;;;;;;26.53;14.43;;;2.20;99.90;1.10;99448;;;;567858;249;24123;-78
2021/12/05 12:10:24;;;;;;;29.77;14.73;;;2.10;99.90;1.00;99444;;;;568818;249;24113;-78
2021/12/05 12:12:57;;;;;;;26.07;14.70;;;2.10;99.90;1.00;99450;;;;564307;249;24113;-81
2021/12/05 12:15:25;;;;;;;31.33;16.03;;;2.00;99.90;1.00;99447;;;;564266;249;24086;-76
2021/12/05 12:17:55;;;;;;;28.97;16.27;;;2.00;99.90;1.00;99454;;;;574236;249;24116;-80
2021/12/05 12:20:22;;;;;;;32.27;16.40;;;2.10;99.90;1.10;99463;;;;571348;248;24145;-76
2021/12/05 12:22:49;;;;;;;31.90;16.30;;;2.10;99.90;1.10;99463;;;;569471;249;24086;-79
2021/12/05 12:25:16;;;;;;;27.13;15.23;;;2.10;99.90;1.10;99466;;;;577985;244;24081;-82
2021/12/05 12:27:44;;;;;;;30.40;15.73;;;2.10;99.90;1.10;99473;;;;587150;242;24112;-77
2021/12/05 12:30:12;;;;;;;27.73;15.07;;;2.10;99.90;1.00;99469;;;;582505;244;24108;-76
2021/12/05 12:32:40;;;;;;;20.80;11.37;;;2.10;99.90;1.00;99469;;;;577025;244;24153;-76
2021/12/05 12:35:09;;;;;;;21.20;12.33;;;2.00;99.90;1.00;99473;;;;587338;244;24097;-73
2021/12/05 12:37:56;;;;;;;24.30;12.17;;;1.90;99.90;0.90;99476;;;;564945;250;24126;-74
2021/12/05 12:40:36;;;;;;;20.53;11.27;;;1.90;99.90;0.90;99472;;;;583547;246;24119;-75
2021/12/05 12:43:04;;;;;;;25.97;14.40;;;1.90;99.90;0.90;99466;;;;582566;246;24136;-75
2021/12/05 12:45:38;;;;;;;28.30;15.13;;;1.90;99.90;0.90;99474;;;;578580;246;24087;-75
2021/12/05 12:48:12;;;;;;;24.17;13.27;;;1.90;99.90;0.90;99464;;;;573010;250;24118;-73
2021/12/05 12:50:50;;;;;;;23.13;13.37;;;1.90;99.90;0.90;99476;;;;563007;251;24136;-73
2021/12/05 12:53:29;;;;;;;28.37;13.60;;;1.90;99.90;0.90;99474;;;;563280;251;24196;-73
2021/12/05 12:56:05;;;;;;;27.97;15.10;;;1.90;99.90;0.90;99472;;;;562770;251;24150;-75
2021/12/05 12:58:49;;;;;;;32.27;16.87;;;1.90;99.90;0.90;99477;;;;562508;251;24138;-73
2021/12/05 13:01:48;;;;;;;26.20;15.17;;;1.90;99.90;0.90;99469;;;;562491;251;24117;-74
2021/12/05 13:12:44;;;;;;;29.63;14.90;;;2.10;99.90;1.00;99483;;;;567794;251;24218;-76
2021/12/05 13:15:16;;;;;;;32.87;15.67;;;2.00;99.90;1.10;99482;;;;562688;251;24173;-74
2021/12/05 13:18:10;;;;;;;27.23;15.70;;;2.10;99.90;1.10;99493;;;;562530;251;24178;-74
2021/12/05 13:20:44;;;;;;;28.10;14.17;;;2.10;99.90;1.10;99489;;;;562409;251;24163;-73
2021/12/05 13:23:15;;;;;;;30.67;14.53;;;2.10;99.90;1.10;99490;;;;562725;251;24140;-73
2021/12/05 13:26:04;;;;;;;24.47;15.73;;;2.10;99.90;1.10;99487;;;;557701;250;35625;-79
2021/12/05 13:28:50;;;;;;;25.73;17.55;;;2.10;99.90;1.20;99494;;;;557266;251;35588;-74
2021/12/05 13:31:32;;;;;;;22.60;12.77;;;2.20;99.90;1.10;99499;;;;570650;251;24213;-76
2021/12/05 13:34:31;;;;;;;21.00;11.33;;;2.20;99.90;1.20;99505;;;;562254;251;24117;-73
2021/12/05 13:36:59;;;;;;;20.73;11.47;;;2.20;99.90;1.20;99508;;;;562129;251;24147;-75
2021/12/05 13:39:48;;;;;;;19.63;11.13;;;2.20;99.90;1.20;99511;;;;562247;246;24187;-77
2021/12/05 13:42:27;;;;;;;20.50;11.20;;;2.20;99.90;1.20;99510;;;;563002;251;24177;-75
2021/12/05 13:45:02;;;;;;;22.57;11.93;;;2.20;99.90;1.20;99520;;;;562786;247;24123;-76
2021/12/05 13:47:52;;;;;;;25.60;12.17;;;2.20;99.90;1.20;99523;;;;562953;251;24221;-73
2021/12/05 13:50:23;;;;;;;19.67;12.87;;;2.20;99.90;1.20;99531;;;;562324;251;24121;-74
2021/12/05 13:52:52;;;;;;;23.53;14.10;;;2.20;99.90;1.10;99525;;;;562644;251;24207;-74
2021/12/05 13:56:01;;;;;;;24.43;13.17;;;2.10;99.90;1.10;99529;;;;562803;251;24143;-74
2021/12/05 13:58:34;;;;;;;24.43;14.30;;;2.10;99.90;1.10;99528;;;;562593;251;24116;-73
2021/12/05 14:01:31;;;;;;;22.07;12.83;;;2.10;99.90;1.10;99527;;;;562337;251;24172;-73
2021/12/05 14:04:11;;;;;;;29.00;16.53;;;2.20;99.90;1.10;99533;;;;575987;244;24338;-74
2021/12/05 14:07:04;;;;;;;30.02;19.65;;;2.20;99.90;1.10;99536;;;;577315;242;35123;-73
2021/12/05 14:09:40;;;;;;;23.83;12.60;;;2.10;99.90;1.10;99535;;;;575789;246;26195;-73
2021/12/05 14:12:24;;;;;;;21.97;12.10;;;2.10;99.90;1.10;99538;;;;570450;246;24119;-74
2021/12/05 14:14:48;;;;;;;23.03;10.97;;;2.10;99.90;1.10;99537;;;;584372;244;24126;-73
2021/12/05 14:17:24;;;;;;;20.40;10.87;;;2.10;99.90;1.10;99543;;;;569904;246;24179;-73
2021/12/05 14:19:56;;;;;;;23.53;12.60;;;2.10;99.90;1.10;99542;;;;575214;246;24105;-78
2021/12/05 14:22:23;;;;;;;24.43;13.63;;;2.10;99.90;1.10;99542;;;;574873;246;24100;-79
2021/12/05 14:24:51;;;;;;;23.27;13.07;;;2.10;99.90;1.10;99551;;;;570166;246;24074;-75
2021/12/05 14:27:19;;;;;;;23.90;12.73;;;2.10;99.90;1.10;99561;;;;570085;246;24085;-75
2021/12/05 14:29:47;;;;;;;23.67;12.77;;;2.10;99.90;1.10;99562;;;;570250;246;24076;-75
2021/12/05 14:32:20;;;;;;;20.47;12.80;;;2.10;99.90;1.10;99557;;;;570169;246;24135;-76
2021/12/05 14:34:46;;;;;;;25.47;13.80;;;2.10;99.90;1.10;99570;;;;584196;246;24070;-78
2021/12/05 14:37:14;;;;;;;26.90;14.87;;;2.10;99.90;1.10;99562;;;;572365;246;24087;-76
2021/12/05 14:39:42;;;;;;;20.90;12.60;;;2.10;99.90;1.10;99568;;;;577693;246;24058;-76
2021/12/05 14:42:10;;;;;;;25.17;13.47;;;2.10;99.90;1.10;99572;;;;574575;246;24158;-75
2021/12/05 14:44:40;;;;;;;23.10;14.10;;;2.10;99.90;1.10;99569;;;;559565;252;24099;-75
2021/12/05 14:47:11;;;;;;;25.90;14.23;;;2.10;99.90;1.10;99573;;;;570907;248;24097;-75
2021/12/05 14:49:43;;;;;;;30.60;14.67;;;2.10;99.90;1.10;99589;;;;582338;240;24034;-74
2021/12/05 14:52:13;;;;;;;19.00;12.33;;;2.10;99.90;1.00;99584;;;;578687;246;24114;-74
2021/12/05 14:54:41;;;;;;;20.93;13.27;;;2.10;99.90;1.00;99579;;;;581148;243;24038;-74
2021/12/05 14:57:09;;;;;;;26.80;14.50;;;2.00;99.90;1.00;99590;;;;578128;248;24113;-74
2021/12/05 14:59:37;;;;;;;26.13;14.07;;;2.00;99.90;1.00;99597;;;;579140;243;24072;-74
2021/12/05 15:02:05;;;;;;;27.70;14.57;;;2.00;99.90;1.00;99593;;;;566501;250;24120;-75
2021/12/05 15:04:35;;;;;;;28.07;12.83;;;2.00;99.90;1.00;99587;;;;574366;246;24136;-77
2021/12/05 15:07:03;;;;;;;23.07;12.73;;;2.00;99.90;1.00;99594;;;;571575;246;24116;-82
2021/12/05 15:09:37;;;;;;;30.40;15.77;;;2.00;99.90;1.00;99590;;;;571656;246;24077;-84
2021/12/05 15:12:08;;;;;;;29.23;14.23;;;2.00;99.90;1.00;99592;;;;574006;246;24140;-84
2021/12/05 15:14:36;;;;;;;26.10;14.67;;;2.00;99.90;1.00;99608;;;;574150;246;24106;-79
2021/12/05 15:17:12;;;;;;;27.77;15.23;;;2.00;99.90;1.00;99609;;;;570098;246;24137;-80
2021/12/05 15:19:40;;;;;;;31.03;16.30;;;2.00;99.90;1.00;99611;;;;571442;246;24113;-84
2021/12/05 15:22:08;;;;;;;28.27;15.33;;;2.00;99.90;1.00;99609;;;;571402;246;25099;-78
2021/12/05 15:24:36;;;;;;;27.77;16.30;;;2.00;99.90;1.00;99606;;;;574159;244;24138;-76
2021/12/05 15:27:04;;;;;;;28.77;16.23;;;2.00;99.90;1.00;99605;;;;582916;244;24097;-82
2021/12/05 15:29:33;;;;;;;26.13;16.30;;;2.10;99.90;1.00;99604;;;;570839;247;24091;-80
2021/12/05 15:32:01;;;;;;;31.63;14.43;;;2.00;99.90;1.00;99608;;;;573923;247;24095;-85
2021/12/05 15:34:31;;;;;;;27.93;14.17;;;2.00;99.90;1.00;99606;;;;574092;247;25135;-83
2021/12/05 15:36:59;;;;;;;23.63;14.73;;;2.00;99.90;1.00;99613;;;;573541;247;25123;-81
2021/12/05 15:39:29;;;;;;;30.60;15.57;;;2.00;99.90;1.00;99611;;;;571065;247;24057;-83
2021/12/05 15:41:56;;;;;;;34.80;15.90;;;2.00;99.90;1.00;99612;;;;573967;247;24073;-82
2021/12/05 15:44:27;;;;;;;29.13;15.23;;;2.00;99.90;1.00;99618;;;;574151;247;24130;-83
2021/12/05 15:47:06;;;;;;;31.67;15.63;;;2.00;99.90;1.00;99621;;;;571832;247;24096;-80
2021/12/05 15:49:43;;;;;;;31.77;16.50;;;2.00;99.90;1.00;99617;;;;573778;247;24109;-74
2021/12/05 15:52:11;;;;;;;26.57;15.30;;;2.00;99.90;1.00;99623;;;;571012;247;24067;-79
2021/12/05 15:54:42;;;;;;;25.03;14.77;;;2.00;99.90;1.00;99630;;;;571096;247;24071;-78
2021/12/05 15:57:11;;;;;;;28.87;15.63;;;2.00;99.90;1.10;99622;;;;573379;247;24192;-75
2021/12/05 15:59:42;;;;;;;30.83;15.67;;;2.10;99.90;1.10;99623;;;;570364;247;24099;-76
2021/12/05 16:02:10;;;;;;;25.63;15.43;;;2.10;99.90;1.10;99625;;;;573498;247;24090;-78
2021/12/05 16:04:34;;;;;;;24.43;13.87;;;2.10;99.90;1.10;99633;;;;573658;246;24144;-75
2021/12/05 16:07:03;;;;;;;23.50;14.80;;;2.10;99.90;1.20;99632;;;;573595;246;24127;-77
2021/12/05 16:09:31;;;;;;;25.27;13.33;;;2.20;99.90;1.20;99638;;;;573343;246;24108;-77
2021/12/05 16:12:17;;;;;;;23.30;12.80;;;2.20;99.90;1.20;99635;;;;573696;246;24145;-76
2021/12/05 16:14:46;;;;;;;27.47;13.43;;;2.30;99.90;1.30;99632;;;;582168;242;24124;-77